createdAt,value
2022-12-06T06:03:47.721Z,1.42
2022-12-06T06:08:50.458Z,1.44
2022-12-06T06:13:54.505Z,1.39
2022-12-06T06:18:56.765Z,1.38
2022-12-06T06:23:59.213Z,1.30
2022-12-06T06:29:01.438Z,1.34
2022-12-06T06:34:03.810Z,1.34
2022-12-06T06:39:06.008Z,1.30
2022-12-06T06:44:08.249Z,1.36
2022-12-06T06:49:11.863Z,1.31
2022-12-06T06:54:15.404Z,1.28
2022-12-06T06:59:17.721Z,1.26
2022-12-06T07:04:20.000Z,1.32
2022-12-06T07:09:22.203Z,1.35
2022-12-06T07:14:24.503Z,1.34
2022-12-06T07:19:26.802Z,1.38
2022-12-06T07:24:29.022Z,1.39
2022-12-06T07:29:31.215Z,1.46
2022-12-06T07:34:33.461Z,1.44
2022-12-06T07:39:35.646Z,1.38
2022-12-06T07:45:01.306Z,1.40
2022-12-06T07:50:06.160Z,1.26
2022-12-06T07:55:09.982Z,1.38
2022-12-06T08:00:15.570Z,1.37
2022-12-06T08:05:17.847Z,1.43
2022-12-06T08:10:20.088Z,1.37
2022-12-06T08:15:22.342Z,1.34
2022-12-06T08:20:24.597Z,1.24
2022-12-06T08:25:26.779Z,1.39
2022-12-06T08:30:29.304Z,1.45
2022-12-06T08:35:31.660Z,1.48
2022-12-06T08:40:33.905Z,1.47
2022-12-06T08:45:36.452Z,1.50
2022-12-06T08:50:39.007Z,1.63
2022-12-06T08:55:41.634Z,1.66
2022-12-06T09:00:43.873Z,1.64
2022-12-06T09:05:46.084Z,1.57
2022-12-06T09:10:48.280Z,1.52
2022-12-06T09:15:50.520Z,1.65
2022-12-06T09:20:52.763Z,1.73
2022-12-06T09:25:55.072Z,1.80
2022-12-06T09:30:57.904Z,1.83
2022-12-06T09:36:05.839Z,1.87
2022-12-06T09:41:50.940Z,1.87
2022-12-06T09:47:02.196Z,1.95
2022-12-06T09:52:41.624Z,1.98
2022-12-06T09:57:56.175Z,2.07
2022-12-06T10:02:58.385Z,2.14
2022-12-06T10:08:49.121Z,2.16
2022-12-06T10:14:13.885Z,2.53
2022-12-06T10:19:41.583Z,2.74
2022-12-06T10:25:05.567Z,2.59
2022-12-06T10:30:11.037Z,2.65
2022-12-06T10:35:19.348Z,2.60
2022-12-06T10:40:34.238Z,2.66
2022-12-06T10:46:24.061Z,2.37
2022-12-06T10:51:34.546Z,2.47
2022-12-06T10:56:41.737Z,2.20
2022-12-06T11:01:45.821Z,2.29
2022-12-06T11:06:54.947Z,2.39
2022-12-06T11:11:58.019Z,2.25
2022-12-06T11:17:05.134Z,2.23
2022-12-06T11:22:35.261Z,2.17
2022-12-06T11:27:44.938Z,2.11
2022-12-06T11:32:50.405Z,2.47
2022-12-06T11:38:02.035Z,2.72
2022-12-06T11:43:08.988Z,2.68
2022-12-06T11:48:18.006Z,2.41
2022-12-06T11:53:27.014Z,2.38
2022-12-06T11:59:01.529Z,2.24
2022-12-06T12:04:32.290Z,2.19
2022-12-06T12:10:00.588Z,2.17
2022-12-06T12:15:03.125Z,2.07
2022-12-06T12:20:08.547Z,2.06
2022-12-06T12:25:36.978Z,1.88
2022-12-06T12:30:52.779Z,1.93
2022-12-06T12:36:02.124Z,1.91
2022-12-06T12:41:23.430Z,1.92
2022-12-06T12:46:26.134Z,1.94
2022-12-06T12:51:36.911Z,2.09
2022-12-06T12:56:39.465Z,2.13
2022-12-06T13:02:03.316Z,1.96
2022-12-06T13:07:31.830Z,2.05
2022-12-06T13:12:44.845Z,2.06
2022-12-06T13:18:00.962Z,1.95
2022-12-06T13:23:09.200Z,2.01
2022-12-06T13:28:19.021Z,1.96
2022-12-06T13:33:27.233Z,1.95
2022-12-06T13:38:32.342Z,2.00
2022-12-06T13:43:39.560Z,1.91
2022-12-06T13:49:05.618Z,1.80
2022-12-06T13:54:13.862Z,1.73
2022-12-06T13:59:16.048Z,1.66
2022-12-06T14:04:24.061Z,1.68
2022-12-06T14:09:28.848Z,1.64
2022-12-06T14:14:31.015Z,1.59
2022-12-06T14:19:45.492Z,1.58
2022-12-06T14:25:15.383Z,1.56
2022-12-06T14:30:26.381Z,1.56
2022-12-06T14:35:36.993Z,1.56
2022-12-06T14:41:01.087Z,1.58
2022-12-06T14:46:10.668Z,1.58
2022-12-06T14:51:23.220Z,1.62
2022-12-06T14:56:32.710Z,1.60
2022-12-06T15:01:36.410Z,1.57
2022-12-06T15:06:55.208Z,1.55
2022-12-06T15:12:42.406Z,1.56
2022-12-06T15:17:45.128Z,1.55
2022-12-06T15:22:47.390Z,1.53
2022-12-06T15:27:49.661Z,1.55
2022-12-06T15:32:51.897Z,1.57
2022-12-06T15:37:54.084Z,1.53
2022-12-06T15:43:02.008Z,1.56
2022-12-06T15:48:04.989Z,1.55
2022-12-06T15:53:10.346Z,1.58
2022-12-06T15:58:12.552Z,1.60
2022-12-06T16:03:14.929Z,1.62
2022-12-06T16:08:17.256Z,1.61
2022-12-06T16:13:23.348Z,1.64
2022-12-06T16:18:25.647Z,1.59
2022-12-06T16:24:18.228Z,1.61
2022-12-06T16:29:20.694Z,1.61
2022-12-06T16:34:23.140Z,1.61
2022-12-06T16:39:25.735Z,1.59
2022-12-06T16:44:28.137Z,1.60
2022-12-06T16:49:48.300Z,1.63
2022-12-06T16:54:50.838Z,1.62
2022-12-06T16:59:53.125Z,1.61
2022-12-06T17:04:56.653Z,1.54
2022-12-06T17:09:59.485Z,1.55
2022-12-06T17:15:01.902Z,1.58
2022-12-06T17:20:05.882Z,1.63
2022-12-06T17:25:09.913Z,1.60
2022-12-06T17:30:17.714Z,1.61
2022-12-06T17:35:19.927Z,1.62
2022-12-06T17:40:22.129Z,1.63
2022-12-06T17:45:25.707Z,1.66
2022-12-06T17:50:27.879Z,1.65
2022-12-06T17:55:30.208Z,1.67
2022-12-06T18:00:32.394Z,1.65
2022-12-06T18:05:34.627Z,1.71
2022-12-06T18:10:36.800Z,1.73
2022-12-06T18:15:39.093Z,1.71
2022-12-06T18:20:43.130Z,1.71
2022-12-06T18:25:45.337Z,1.73
2022-12-06T18:30:47.563Z,1.75
2022-12-06T18:35:53.570Z,1.79
2022-12-06T18:41:08.485Z,1.82
2022-12-06T18:46:21.969Z,1.83
2022-12-06T18:51:27.366Z,1.87
2022-12-06T18:56:32.400Z,1.91
2022-12-06T19:01:37.087Z,1.93
2022-12-06T19:06:39.393Z,1.96
2022-12-06T19:11:44.281Z,2.00
2022-12-06T19:16:49.338Z,1.99
2022-12-06T19:21:54.266Z,2.03
2022-12-06T19:27:00.007Z,2.02
2022-12-06T19:32:02.534Z,2.05
2022-12-06T19:37:04.870Z,2.05
2022-12-06T19:42:25.710Z,2.08
2022-12-06T19:47:27.910Z,2.09
2022-12-06T19:52:31.132Z,2.08
2022-12-06T19:57:33.551Z,2.12
2022-12-06T20:02:36.099Z,2.12
2022-12-06T20:07:38.387Z,2.12
2022-12-06T20:12:40.639Z,2.10
2022-12-06T20:17:42.987Z,2.10
2022-12-06T20:22:45.235Z,2.09
2022-12-06T20:27:53.366Z,2.06
2022-12-06T20:32:55.671Z,2.06
2022-12-06T20:37:57.903Z,2.07
2022-12-06T20:43:00.130Z,2.10
2022-12-06T20:48:02.315Z,2.14
2022-12-06T20:53:04.588Z,2.15
2022-12-06T20:58:06.790Z,2.14
2022-12-06T21:03:09.168Z,2.14
2022-12-06T21:08:11.663Z,2.12
2022-12-06T21:13:13.939Z,2.13
2022-12-06T21:18:19.823Z,2.16
2022-12-06T21:23:22.362Z,2.18
2022-12-06T21:28:24.634Z,2.16
2022-12-06T21:33:27.005Z,2.16
2022-12-06T21:38:32.710Z,2.13
2022-12-06T21:43:36.223Z,2.15
2022-12-06T21:48:39.254Z,2.19
2022-12-06T21:53:41.600Z,2.44
2022-12-06T21:58:44.350Z,2.34
2022-12-06T22:03:51.202Z,2.27
2022-12-06T22:09:02.718Z,2.22
2022-12-06T22:14:05.575Z,2.17
2022-12-06T22:19:07.818Z,2.23
2022-12-06T22:24:10.198Z,2.22
2022-12-06T22:29:12.709Z,2.22
2022-12-06T22:34:14.947Z,2.22
2022-12-06T22:39:18.563Z,2.17
2022-12-06T22:44:20.875Z,2.12
